Observations for ALGHERO, Italy (LIEA)

LIEA 192020Z VRB02KT CAVOK 16/13 Q1013  
LIEA 191950Z VRB02KT CAVOK 16/13 Q1013  
LIEA 191920Z 08003KT CAVOK 17/14 Q1013  
LIEA 191850Z 07002KT CAVOK 18/15 Q1013  
LIEA 191820Z 06002KT CAVOK 19/15 Q1013  
LIEA 191750Z VRB02KT CAVOK 20/15 Q1013  
LIEA 191720Z 06004KT CAVOK 21/15 Q1013  
LIEA 191650Z VRB02KT CAVOK 23/13 Q1013  
LIEA 191620Z VRB01KT CAVOK 25/14 Q1013  
LIEA 191550Z 25008KT CAVOK 25/13 Q1013  
LIEA 191520Z 25008KT CAVOK 25/13 Q1013  
LIEA 191450Z 24008KT CAVOK 26/13 Q1013  
LIEA 191420Z 24009KT CAVOK 25/12 Q1013  
LIEA 191350Z 23010KT CAVOK 25/11 Q1013  
LIEA 191320Z 22012KT CAVOK 26/13 Q1014  
LIEA 191250Z 22010KT CAVOK 25/16 Q1014  
LIEA 191220Z 23011KT CAVOK 24/16 Q1014  
LIEA 191150Z 24013KT CAVOK 24/16 Q1014  
LIEA 191120Z 24014KT CAVOK 24/16 Q1015  
LIEA 191050Z 23014KT CAVOK 24/15 Q1015  
LIEA 191020Z 22014KT CAVOK 23/16 Q1016  
LIEA 190950Z 22014KT CAVOK 23/16 Q1016  
LIEA 190920Z 23014KT CAVOK 23/17 Q1016  
LIEA 190850Z 22014KT CAVOK 23/17 Q1016  
LIEA 190820Z VRB03KT CAVOK 21/15 Q1016  
LIEA 190750Z 09003KT 040V130 CAVOK 19/14 Q1016  
LIEA 190720Z 08004KT CAVOK 16/14 Q1016  
LIEA 190650Z VRB02KT CAVOK 14/14 Q1015  
LIEA 190620Z 06003KT CAVOK 12/12 Q1015  
LIEA 190550Z VRB02KT CAVOK 13/13 Q1015  
LIEA 190520Z VRB01KT 9999 MIFG NSC 13/12 Q1015  
LIEA 190450Z VRB02KT CAVOK 13/12 Q1015  
LIEA 190420Z VRB02KT CAVOK 13/13 Q1015  
LIEA 190350Z VRB02KT CAVOK 13/12 Q1015  
LIEA 190250Z 05003KT CAVOK 14/13 Q1016  
LIEA 190220Z 06004KT CAVOK 13/13 Q1016  
LIEA 190150Z 36002KT CAVOK 13/13 Q1016  
LIEA 190120Z VRB02KT CAVOK 13/12 Q1016  
LIEA 190050Z 08002KT CAVOK 12/12 Q1016  
LIEA 190020Z 05002KT CAVOK 13/12 Q1016  
LIEA 182350Z 07002KT CAVOK 13/13 Q1017  
LIEA 182320Z 07002KT CAVOK 14/13 Q1017  
LIEA 182250Z VRB01KT CAVOK 13/13 Q1017  
LIEA 182220Z VRB01KT CAVOK 14/13 Q1017  
LIEA 182150Z 05001KT CAVOK 15/14 Q1017  
LIEA 182120Z 36002KT CAVOK 16/15 Q1017  
LIEA 182050Z VRB01KT CAVOK 16/14 Q1017  
LIEA 182020Z VRB01KT CAVOK 17/15 Q1017  
LIEA 181950Z 15003KT CAVOK 18/16 Q1017